Terminal Aerodrome Forecast
Issued by NWS Sioux Falls, SD

Home | Current Version | Previous Version | Graphics & Text | Print | Product List | Glossary On
Versions: 1 2 3 4 5 6 7 8 9 10 11 12 13 14 15
000
FTUS43 KFSD 261723
TAFHON
TAF
KHON 261723Z 2618/2718 16006KT P6SM BKN250
     FM262000 12006KT P6SM BKN250
     FM270100 11008KT P6SM VCSH OVC250
     FM270400 13007KT P6SM OVC200
     FM271300 19004KT P6SM BKN150=

USA.gov is the U.S. government's official web portal to all federal, state and local government web resources and services.